sensor_id;sensor_type;location;lat;lon;timestamp;pressure;altitude;pressure_sealevel;temperature;humidity
77207;BME280;66190;50.708;7.906;2023-09-19T00:02:17;95799.03;;;15.33;91.12
77207;BME280;66190;50.708;7.906;2023-09-19T00:04:42;95798.94;;;15.28;92.08
77207;BME280;66190;50.708;7.906;2023-09-19T00:07:08;95801.41;;;15.29;92.82
77207;BME280;66190;50.708;7.906;2023-09-19T00:09:34;95803.38;;;15.34;92.94
77207;BME280;66190;50.708;7.906;2023-09-19T00:12:06;95804.94;;;15.46;93.45
77207;BME280;66190;50.708;7.906;2023-09-19T00:14:32;95807.06;;;15.28;94.84
77207;BME280;66190;50.708;7.906;2023-09-19T00:17:01;95806.25;;;15.11;94.19
77207;BME280;66190;50.708;7.906;2023-09-19T00:19:36;95804.31;;;15.06;94.67
77207;BME280;66190;50.708;7.906;2023-09-19T00:22:02;95805.09;;;15.07;94.83
77207;BME280;66190;50.708;7.906;2023-09-19T00:24:28;95814.06;;;15.07;95.28
77207;BME280;66190;50.708;7.906;2023-09-19T00:26:54;95812.91;;;15.03;95.94
77207;BME280;66190;50.708;7.906;2023-09-19T00:29:24;95810.59;;;15.12;96.29
77207;BME280;66190;50.708;7.906;2023-09-19T00:31:54;95815.47;;;15.10;96.75
77207;BME280;66190;50.708;7.906;2023-09-19T00:34:20;95825.22;;;15.11;97.66
77207;BME280;66190;50.708;7.906;2023-09-19T00:36:45;95830.31;;;14.91;97.34
77207;BME280;66190;50.708;7.906;2023-09-19T00:39:11;95832.53;;;14.94;95.92
77207;BME280;66190;50.708;7.906;2023-09-19T00:41:36;95826.44;;;15.03;94.17
77207;BME280;66190;50.708;7.906;2023-09-19T00:44:02;95836.78;;;14.90;91.59
77207;BME280;66190;50.708;7.906;2023-09-19T00:46:29;95831.69;;;14.76;91.36
77207;BME280;66190;50.708;7.906;2023-09-19T00:48:55;95839.50;;;14.90;90.17
77207;BME280;66190;50.708;7.906;2023-09-19T00:51:22;95833.63;;;14.64;90.80
77207;BME280;66190;50.708;7.906;2023-09-19T00:53:51;95834.09;;;14.61;89.74
77207;BME280;66190;50.708;7.906;2023-09-19T00:56:18;95841.34;;;14.56;89.32
77207;BME280;66190;50.708;7.906;2023-09-19T00:58:45;95846.09;;;14.65;88.86
77207;BME280;66190;50.708;7.906;2023-09-19T01:01:12;95846.06;;;14.49;89.60
77207;BME280;66190;50.708;7.906;2023-09-19T01:03:40;95838.84;;;14.54;88.85
77207;BME280;66190;50.708;7.906;2023-09-19T01:06:06;95850.69;;;14.37;88.72
77207;BME280;66190;50.708;7.906;2023-09-19T01:08:32;95844.31;;;14.43;88.27
77207;BME280;66190;50.708;7.906;2023-09-19T01:11:33;95854.81;;;14.39;88.09
77207;BME280;66190;50.708;7.906;2023-09-19T01:22:46;95859.13;;;14.40;87.39
77207;BME280;66190;50.708;7.906;2023-09-19T01:30:43;95856.81;;;14.32;86.70
77207;BME280;66190;50.708;7.906;2023-09-19T01:33:09;95859.13;;;14.40;86.16
77207;BME280;66190;50.708;7.906;2023-09-19T01:35:38;95857.91;;;14.31;85.96
77207;BME280;66190;50.708;7.906;2023-09-19T01:38:05;95863.91;;;14.33;86.18
77207;BME280;66190;50.708;7.906;2023-09-19T01:40:35;95863.50;;;14.41;85.80
77207;BME280;66190;50.708;7.906;2023-09-19T01:51:04;95875.19;;;14.30;87.30
77207;BME280;66190;50.708;7.906;2023-09-19T01:53:36;95879.06;;;14.34;86.97
77207;BME280;66190;50.708;7.906;2023-09-19T01:56:05;95879.19;;;14.28;87.06
77207;BME280;66190;50.708;7.906;2023-09-19T01:58:42;95881.44;;;14.19;87.66
77207;BME280;66190;50.708;7.906;2023-09-19T02:01:11;95884.13;;;14.31;87.15
77207;BME280;66190;50.708;7.906;2023-09-19T02:03:40;95893.75;;;14.38;86.94
77207;BME280;66190;50.708;7.906;2023-09-19T02:06:06;95890.81;;;14.40;87.02
77207;BME280;66190;50.708;7.906;2023-09-19T02:08:36;95884.38;;;14.29;87.44
77207;BME280;66190;50.708;7.906;2023-09-19T02:11:02;95890.69;;;14.23;88.20
77207;BME280;66190;50.708;7.906;2023-09-19T02:13:28;95888.72;;;14.30;87.75
77207;BME280;66190;50.708;7.906;2023-09-19T02:15:54;95893.53;;;14.28;88.21
77207;BME280;66190;50.708;7.906;2023-09-19T02:18:19;95904.50;;;14.10;89.38
77207;BME280;66190;50.708;7.906;2023-09-19T02:20:45;95904.72;;;14.09;89.79
77207;BME280;66190;50.708;7.906;2023-09-19T02:23:11;95905.53;;;14.21;89.24
77207;BME280;66190;50.708;7.906;2023-09-19T02:25:38;95895.69;;;14.26;89.62
77207;BME280;66190;50.708;7.906;2023-09-19T02:28:04;95896.97;;;14.12;90.26
77207;BME280;66190;50.708;7.906;2023-09-19T02:30:31;95907.41;;;14.20;89.24
77207;BME280;66190;50.708;7.906;2023-09-19T02:32:56;95902.25;;;14.19;89.25
77207;BME280;66190;50.708;7.906;2023-09-19T02:35:22;95909.56;;;14.30;89.19
77207;BME280;66190;50.708;7.906;2023-09-19T02:37:48;95904.34;;;14.17;89.25
77207;BME280;66190;50.708;7.906;2023-09-19T02:40:14;95912.72;;;14.15;89.09
77207;BME280;66190;50.708;7.906;2023-09-19T02:42:53;95917.19;;;14.10;88.74
77207;BME280;66190;50.708;7.906;2023-09-19T02:45:19;95921.06;;;14.02;88.26
77207;BME280;66190;50.708;7.906;2023-09-19T02:47:48;95918.94;;;14.04;88.51
77207;BME280;66190;50.708;7.906;2023-09-19T02:50:14;95910.28;;;13.91;88.43
77207;BME280;66190;50.708;7.906;2023-09-19T02:52:42;95913.81;;;13.91;88.27
77207;BME280;66190;50.708;7.906;2023-09-19T02:55:11;95921.81;;;13.86;88.49
77207;BME280;66190;50.708;7.906;2023-09-19T02:57:39;95916.03;;;13.94;87.75
77207;BME280;66190;50.708;7.906;2023-09-19T03:00:08;95925.19;;;13.82;87.64
77207;BME280;66190;50.708;7.906;2023-09-19T03:02:37;95931.56;;;13.87;87.34
77207;BME280;66190;50.708;7.906;2023-09-19T03:05:05;95930.97;;;13.85;87.46
77207;BME280;66190;50.708;7.906;2023-09-19T03:07:31;95916.03;;;13.83;87.58
77207;BME280;66190;50.708;7.906;2023-09-19T03:09:56;95919.78;;;13.82;84.96
77207;BME280;66190;50.708;7.906;2023-09-19T03:12:22;95921.22;;;13.84;85.76
77207;BME280;66190;50.708;7.906;2023-09-19T03:14:47;95932.00;;;13.61;84.73
77207;BME280;66190;50.708;7.906;2023-09-19T03:17:13;95932.63;;;13.63;85.08
77207;BME280;66190;50.708;7.906;2023-09-19T03:19:40;95934.59;;;13.56;85.12
77207;BME280;66190;50.708;7.906;2023-09-19T03:22:05;95942.72;;;13.56;85.37
77207;BME280;66190;50.708;7.906;2023-09-19T03:24:31;95948.47;;;13.48;85.27
77207;BME280;66190;50.708;7.906;2023-09-19T03:26:59;95949.63;;;13.52;85.60
77207;BME280;66190;50.708;7.906;2023-09-19T03:29:24;95944.59;;;13.55;84.82
77207;BME280;66190;50.708;7.906;2023-09-19T03:31:50;95946.22;;;13.45;84.45
77207;BME280;66190;50.708;7.906;2023-09-19T03:34:16;95946.00;;;13.58;84.15
77207;BME280;66190;50.708;7.906;2023-09-19T03:36:42;95942.34;;;13.52;84.46
77207;BME280;66190;50.708;7.906;2023-09-19T03:39:07;95941.06;;;13.55;84.55
77207;BME280;66190;50.708;7.906;2023-09-19T03:41:33;95956.09;;;13.39;84.86
77207;BME280;66190;50.708;7.906;2023-09-19T03:43:58;95953.16;;;13.41;84.83
77207;BME280;66190;50.708;7.906;2023-09-19T03:46:24;95954.31;;;13.45;84.69
77207;BME280;66190;50.708;7.906;2023-09-19T03:48:50;95940.31;;;13.36;84.99
77207;BME280;66190;50.708;7.906;2023-09-19T03:51:15;95945.28;;;13.39;85.13
77207;BME280;66190;50.708;7.906;2023-09-19T03:53:41;95950.41;;;13.29;85.37
77207;BME280;66190;50.708;7.906;2023-09-19T03:56:06;95957.34;;;13.25;85.71
77207;BME280;66190;50.708;7.906;2023-09-19T03:58:33;95961.56;;;13.21;85.67
77207;BME280;66190;50.708;7.906;2023-09-19T04:01:03;95959.56;;;13.17;85.91
77207;BME280;66190;50.708;7.906;2023-09-19T04:03:28;95959.00;;;13.26;85.47
77207;BME280;66190;50.708;7.906;2023-09-19T04:06:00;95956.38;;;13.20;85.74
77207;BME280;66190;50.708;7.906;2023-09-19T04:08:26;95959.03;;;13.08;86.27
77207;BME280;66190;50.708;7.906;2023-09-19T04:10:52;95964.63;;;12.95;86.82
77207;BME280;66190;50.708;7.906;2023-09-19T04:13:18;95955.19;;;13.04;86.67
77207;BME280;66190;50.708;7.906;2023-09-19T04:15:43;95962.38;;;12.92;87.57
77207;BME280;66190;50.708;7.906;2023-09-19T04:18:11;95967.06;;;12.97;87.07
77207;BME280;66190;50.708;7.906;2023-09-19T04:20:37;95971.16;;;12.88;87.64
77207;BME280;66190;50.708;7.906;2023-09-19T04:23:02;95961.66;;;12.85;87.69
77207;BME280;66190;50.708;7.906;2023-09-19T04:25:29;95954.06;;;12.76;88.46
77207;BME280;66190;50.708;7.906;2023-09-19T04:27:55;95949.03;;;12.79;88.44
77207;BME280;66190;50.708;7.906;2023-09-19T04:30:20;95955.59;;;12.72;89.16
77207;BME280;66190;50.708;7.906;2023-09-19T04:32:46;95966.69;;;12.64;89.41
77207;BME280;66190;50.708;7.906;2023-09-19T04:35:16;95959.91;;;12.61;88.91
77207;BME280;66190;50.708;7.906;2023-09-19T04:37:41;95964.59;;;12.66;88.87
77207;BME280;66190;50.708;7.906;2023-09-19T04:40:10;95969.63;;;12.62;89.30
77207;BME280;66190;50.708;7.906;2023-09-19T04:42:40;95964.13;;;12.69;88.86
77207;BME280;66190;50.708;7.906;2023-09-19T04:45:06;95966.31;;;12.60;88.97
77207;BME280;66190;50.708;7.906;2023-09-19T04:47:32;95972.31;;;12.62;88.51
77207;BME280;66190;50.708;7.906;2023-09-19T04:49:57;95977.41;;;12.70;87.55
77207;BME280;66190;50.708;7.906;2023-09-19T04:52:24;95968.00;;;12.61;87.70
77207;BME280;66190;50.708;7.906;2023-09-19T04:54:49;95971.44;;;12.68;87.99
77207;BME280;66190;50.708;7.906;2023-09-19T04:57:15;95963.53;;;12.67;87.84
77207;BME280;66190;50.708;7.906;2023-09-19T04:59:41;95978.19;;;12.59;88.84
77207;BME280;66190;50.708;7.906;2023-09-19T05:02:06;95972.22;;;12.69;88.32
77207;BME280;66190;50.708;7.906;2023-09-19T05:04:33;95965.09;;;12.74;88.59
77207;BME280;66190;50.708;7.906;2023-09-19T05:06:58;95965.47;;;12.78;88.62
77207;BME280;66190;50.708;7.906;2023-09-19T05:09:25;95968.53;;;12.81;88.50
77207;BME280;66190;50.708;7.906;2023-09-19T05:11:50;95967.72;;;12.81;88.63
77207;BME280;66190;50.708;7.906;2023-09-19T05:14:16;95969.91;;;12.72;90.00
77207;BME280;66190;50.708;7.906;2023-09-19T05:16:42;95971.50;;;12.62;90.46
77207;BME280;66190;50.708;7.906;2023-09-19T05:19:08;95978.84;;;12.54;91.11
77207;BME280;66190;50.708;7.906;2023-09-19T05:21:36;95980.59;;;12.49;91.69
77207;BME280;66190;50.708;7.906;2023-09-19T05:24:07;95985.38;;;12.47;92.04
77207;BME280;66190;50.708;7.906;2023-09-19T05:26:32;95977.66;;;12.50;91.58
77207;BME280;66190;50.708;7.906;2023-09-19T05:28:58;95986.00;;;12.49;91.60
77207;BME280;66190;50.708;7.906;2023-09-19T05:31:24;95984.31;;;12.48;91.02
77207;BME280;66190;50.708;7.906;2023-09-19T05:33:50;95991.00;;;12.45;90.70
77207;BME280;66190;50.708;7.906;2023-09-19T05:36:16;95992.66;;;12.46;91.25
77207;BME280;66190;50.708;7.906;2023-09-19T05:38:42;95990.56;;;12.48;91.09
77207;BME280;66190;50.708;7.906;2023-09-19T05:41:08;95985.31;;;12.53;90.98
77207;BME280;66190;50.708;7.906;2023-09-19T05:43:39;95993.53;;;12.58;89.88
77207;BME280;66190;50.708;7.906;2023-09-19T05:46:06;95998.94;;;12.58;89.74
77207;BME280;66190;50.708;7.906;2023-09-19T05:48:33;95988.97;;;12.59;89.71
77207;BME280;66190;50.708;7.906;2023-09-19T05:50:59;95992.13;;;12.56;89.36
77207;BME280;66190;50.708;7.906;2023-09-19T05:53:24;96010.09;;;12.62;89.15
77207;BME280;66190;50.708;7.906;2023-09-19T05:55:50;96017.16;;;12.63;88.87
77207;BME280;66190;50.708;7.906;2023-09-19T05:58:18;96023.59;;;12.62;89.24
77207;BME280;66190;50.708;7.906;2023-09-19T06:00:45;96033.41;;;12.56;89.14
77207;BME280;66190;50.708;7.906;2023-09-19T06:03:12;96033.88;;;12.72;89.41
77207;BME280;66190;50.708;7.906;2023-09-19T06:05:39;96033.56;;;12.62;89.25
77207;BME280;66190;50.708;7.906;2023-09-19T06:08:06;96037.25;;;12.67;89.29
77207;BME280;66190;50.708;7.906;2023-09-19T06:10:33;96042.25;;;12.64;89.37
77207;BME280;66190;50.708;7.906;2023-09-19T06:12:59;96042.28;;;12.82;89.20
77207;BME280;66190;50.708;7.906;2023-09-19T06:15:25;96043.66;;;12.84;88.91
77207;BME280;66190;50.708;7.906;2023-09-19T06:17:53;96046.84;;;12.81;88.88
77207;BME280;66190;50.708;7.906;2023-09-19T06:20:22;96050.00;;;12.78;88.75
77207;BME280;66190;50.708;7.906;2023-09-19T06:22:49;96053.81;;;12.89;88.05
77207;BME280;66190;50.708;7.906;2023-09-19T06:25:15;96057.63;;;12.81;87.37
77207;BME280;66190;50.708;7.906;2023-09-19T06:27:45;96064.09;;;12.80;86.55
77207;BME280;66190;50.708;7.906;2023-09-19T06:30:11;96066.78;;;12.80;86.83
77207;BME280;66190;50.708;7.906;2023-09-19T06:32:42;96068.66;;;12.80;87.28
77207;BME280;66190;50.708;7.906;2023-09-19T06:35:12;96074.22;;;12.85;86.62
77207;BME280;66190;50.708;7.906;2023-09-19T06:37:38;96072.63;;;12.77;86.45
77207;BME280;66190;50.708;7.906;2023-09-19T06:40:13;96077.50;;;12.87;86.34
77207;BME280;66190;50.708;7.906;2023-09-19T06:42:47;96076.97;;;12.96;85.91
77207;BME280;66190;50.708;7.906;2023-09-19T06:45:15;96091.00;;;12.87;86.71
77207;BME280;66190;50.708;7.906;2023-09-19T06:47:45;96086.34;;;12.76;86.40
77207;BME280;66190;50.708;7.906;2023-09-19T06:50:11;96087.63;;;12.91;86.56
77207;BME280;66190;50.708;7.906;2023-09-19T06:52:42;96091.69;;;12.82;87.52
77207;BME280;66190;50.708;7.906;2023-09-19T06:55:08;96095.94;;;12.90;87.29
77207;BME280;66190;50.708;7.906;2023-09-19T06:57:35;96101.22;;;12.85;88.17
77207;BME280;66190;50.708;7.906;2023-09-19T07:00:01;96114.03;;;12.89;87.46
77207;BME280;66190;50.708;7.906;2023-09-19T07:02:27;96102.09;;;12.97;87.11
77207;BME280;66190;50.708;7.906;2023-09-19T07:04:52;96114.25;;;12.88;86.26
77207;BME280;66190;50.708;7.906;2023-09-19T07:07:18;96115.91;;;12.89;85.31
77207;BME280;66190;50.708;7.906;2023-09-19T07:09:43;96108.56;;;12.96;85.62
77207;BME280;66190;50.708;7.906;2023-09-19T07:12:08;96115.00;;;12.95;86.41
77207;BME280;66190;50.708;7.906;2023-09-19T07:14:34;96127.00;;;12.99;86.00
77207;BME280;66190;50.708;7.906;2023-09-19T07:16:59;96117.28;;;12.98;86.23
77207;BME280;66190;50.708;7.906;2023-09-19T07:19:26;96114.94;;;13.01;85.77
77207;BME280;66190;50.708;7.906;2023-09-19T07:21:53;96130.13;;;13.20;85.77
77207;BME280;66190;50.708;7.906;2023-09-19T07:24:19;96119.09;;;13.22;84.96
77207;BME280;66190;50.708;7.906;2023-09-19T07:26:45;96120.47;;;13.24;85.60
77207;BME280;66190;50.708;7.906;2023-09-19T07:29:10;96116.97;;;13.24;85.46
77207;BME280;66190;50.708;7.906;2023-09-19T07:31:36;96115.03;;;13.13;85.05
77207;BME280;66190;50.708;7.906;2023-09-19T07:34:01;96125.28;;;13.22;84.87
77207;BME280;66190;50.708;7.906;2023-09-19T07:36:29;96123.78;;;13.08;83.97
77207;BME280;66190;50.708;7.906;2023-09-19T07:38:55;96123.75;;;13.15;84.54
77207;BME280;66190;50.708;7.906;2023-09-19T07:41:23;96116.53;;;13.09;84.03
77207;BME280;66190;50.708;7.906;2023-09-19T07:43:49;96115.59;;;13.33;83.51
77207;BME280;66190;50.708;7.906;2023-09-19T07:46:14;96132.22;;;13.18;82.62
77207;BME280;66190;50.708;7.906;2023-09-19T07:48:39;96122.91;;;13.32;83.17
77207;BME280;66190;50.708;7.906;2023-09-19T07:51:08;96122.81;;;13.39;82.44
77207;BME280;66190;50.708;7.906;2023-09-19T07:53:34;96138.28;;;13.32;82.08
77207;BME280;66190;50.708;7.906;2023-09-19T07:56:04;96132.63;;;13.33;82.13
77207;BME280;66190;50.708;7.906;2023-09-19T07:58:30;96127.31;;;13.27;82.12
77207;BME280;66190;50.708;7.906;2023-09-19T08:00:56;96129.78;;;13.28;81.53
77207;BME280;66190;50.708;7.906;2023-09-19T08:03:27;96120.72;;;13.23;81.82
77207;BME280;66190;50.708;7.906;2023-09-19T08:05:52;96119.03;;;13.40;81.44
77207;BME280;66190;50.708;7.906;2023-09-19T08:08:17;96117.31;;;13.45;81.40
77207;BME280;66190;50.708;7.906;2023-09-19T08:10:43;96125.63;;;13.62;80.65
77207;BME280;66190;50.708;7.906;2023-09-19T08:13:10;96122.91;;;13.62;80.64
77207;BME280;66190;50.708;7.906;2023-09-19T08:15:43;96126.47;;;13.74;80.06
77207;BME280;66190;50.708;7.906;2023-09-19T08:18:11;96133.53;;;13.75;79.56
77207;BME280;66190;50.708;7.906;2023-09-19T08:20:37;96138.66;;;13.65;79.61
77207;BME280;66190;50.708;7.906;2023-09-19T08:23:03;96134.97;;;13.78;79.83
77207;BME280;66190;50.708;7.906;2023-09-19T08:25:29;96135.75;;;13.78;79.47
77207;BME280;66190;50.708;7.906;2023-09-19T08:27:55;96143.63;;;13.80;79.14
77207;BME280;66190;50.708;7.906;2023-09-19T08:30:25;96148.25;;;13.79;79.19
77207;BME280;66190;50.708;7.906;2023-09-19T08:32:58;96148.13;;;13.86;79.43
77207;BME280;66190;50.708;7.906;2023-09-19T08:35:24;96147.28;;;13.74;78.71
77207;BME280;66190;50.708;7.906;2023-09-19T08:37:49;96143.47;;;13.63;78.42
77207;BME280;66190;50.708;7.906;2023-09-19T08:40:16;96142.59;;;13.81;79.69
77207;BME280;66190;50.708;7.906;2023-09-19T08:42:50;96147.34;;;13.97;78.05
77207;BME280;66190;50.708;7.906;2023-09-19T08:45:16;96143.56;;;13.86;77.95
77207;BME280;66190;50.708;7.906;2023-09-19T08:50:52;96143.25;;;14.06;77.78
77207;BME280;66190;50.708;7.906;2023-09-19T08:53:41;96154.34;;;14.16;76.39
77207;BME280;66190;50.708;7.906;2023-09-19T08:56:12;96146.22;;;14.16;76.31
77207;BME280;66190;50.708;7.906;2023-09-19T08:58:51;96158.69;;;14.17;76.16
77207;BME280;66190;50.708;7.906;2023-09-19T09:01:21;96159.38;;;14.42;76.26
77207;BME280;66190;50.708;7.906;2023-09-19T09:03:51;96158.88;;;14.56;75.43
77207;BME280;66190;50.708;7.906;2023-09-19T09:06:19;96163.16;;;14.52;74.72
77207;BME280;66190;50.708;7.906;2023-09-19T09:08:46;96150.75;;;14.56;74.95
77207;BME280;66190;50.708;7.906;2023-09-19T09:11:13;96162.88;;;14.31;74.14
77207;BME280;66190;50.708;7.906;2023-09-19T09:13:40;96176.91;;;14.62;73.73
77207;BME280;66190;50.708;7.906;2023-09-19T09:16:07;96170.28;;;14.35;74.70
77207;BME280;66190;50.708;7.906;2023-09-19T09:18:32;96171.25;;;14.64;74.32
77207;BME280;66190;50.708;7.906;2023-09-19T09:20:58;96167.13;;;14.50;73.86
77207;BME280;66190;50.708;7.906;2023-09-19T09:23:23;96163.94;;;14.53;73.80
77207;BME280;66190;50.708;7.906;2023-09-19T09:25:54;96175.72;;;14.70;72.92
77207;BME280;66190;50.708;7.906;2023-09-19T09:28:25;96166.91;;;14.74;73.43
77207;BME280;66190;50.708;7.906;2023-09-19T09:30:52;96171.59;;;14.79;73.76
77207;BME280;66190;50.708;7.906;2023-09-19T09:33:17;96172.66;;;14.90;73.37
77207;BME280;66190;50.708;7.906;2023-09-19T09:35:59;96178.78;;;14.97;72.77
77207;BME280;66190;50.708;7.906;2023-09-19T09:38:47;96175.16;;;14.79;72.26
77207;BME280;66190;50.708;7.906;2023-09-19T09:41:16;96173.97;;;14.99;72.61
77207;BME280;66190;50.708;7.906;2023-09-19T09:43:53;96162.66;;;15.02;72.90
77207;BME280;66190;50.708;7.906;2023-09-19T09:46:20;96163.91;;;15.22;72.55
77207;BME280;66190;50.708;7.906;2023-09-19T09:48:46;96167.78;;;15.38;71.42
77207;BME280;66190;50.708;7.906;2023-09-19T09:51:31;96171.78;;;15.47;71.07
77207;BME280;66190;50.708;7.906;2023-09-19T09:54:17;96168.50;;;15.45;70.51
77207;BME280;66190;50.708;7.906;2023-09-19T09:56:56;96172.00;;;15.57;70.26
77207;BME280;66190;50.708;7.906;2023-09-19T09:59:53;96178.28;;;15.46;69.12
77207;BME280;66190;50.708;7.906;2023-09-19T10:02:27;96167.66;;;15.33;69.84
77207;BME280;66190;50.708;7.906;2023-09-19T10:05:11;96166.16;;;15.25;70.02
77207;BME280;66190;50.708;7.906;2023-09-19T10:07:52;96175.56;;;15.34;70.08
77207;BME280;66190;50.708;7.906;2023-09-19T10:10:36;96168.50;;;15.33;68.48
77207;BME280;66190;50.708;7.906;2023-09-19T10:13:09;96168.84;;;15.37;69.54
77207;BME280;66190;50.708;7.906;2023-09-19T10:15:42;96173.56;;;15.30;69.47
77207;BME280;66190;50.708;7.906;2023-09-19T10:18:19;96172.38;;;15.49;69.91
77207;BME280;66190;50.708;7.906;2023-09-19T10:20:46;96168.16;;;15.41;69.39
77207;BME280;66190;50.708;7.906;2023-09-19T10:23:12;96153.88;;;15.34;68.66
77207;BME280;66190;50.708;7.906;2023-09-19T10:25:40;96157.31;;;15.41;68.36
77207;BME280;66190;50.708;7.906;2023-09-19T10:28:07;96147.03;;;15.55;67.33
77207;BME280;66190;50.708;7.906;2023-09-19T10:30:43;96151.88;;;15.53;68.68
77207;BME280;66190;50.708;7.906;2023-09-19T10:33:11;96150.53;;;15.55;69.49
77207;BME280;66190;50.708;7.906;2023-09-19T10:35:39;96149.72;;;15.83;69.41
77207;BME280;66190;50.708;7.906;2023-09-19T10:38:06;96141.16;;;16.03;68.95
77207;BME280;66190;50.708;7.906;2023-09-19T10:40:32;96142.13;;;15.97;66.90
77207;BME280;66190;50.708;7.906;2023-09-19T10:43:04;96136.72;;;15.97;67.84
77207;BME280;66190;50.708;7.906;2023-09-19T10:45:34;96136.75;;;15.85;68.55
77207;BME280;66190;50.708;7.906;2023-09-19T10:48:01;96141.47;;;15.89;68.58
77207;BME280;66190;50.708;7.906;2023-09-19T10:50:32;96139.50;;;16.02;67.35
77207;BME280;66190;50.708;7.906;2023-09-19T10:53:02;96151.63;;;15.82;66.61
77207;BME280;66190;50.708;7.906;2023-09-19T10:55:31;96146.22;;;15.82;67.09
77207;BME280;66190;50.708;7.906;2023-09-19T10:57:58;96139.34;;;16.08;67.26
77207;BME280;66190;50.708;7.906;2023-09-19T11:00:25;96145.69;;;16.14;66.53
77207;BME280;66190;50.708;7.906;2023-09-19T11:05:38;96144.72;;;16.36;66.46
77207;BME280;66190;50.708;7.906;2023-09-19T11:08:07;96150.25;;;16.41;65.29
77207;BME280;66190;50.708;7.906;2023-09-19T11:10:49;96147.88;;;16.61;65.21
77207;BME280;66190;50.708;7.906;2023-09-19T11:13:33;96139.16;;;16.59;65.19
77207;BME280;66190;50.708;7.906;2023-09-19T11:16:04;96150.34;;;16.79;65.04
77207;BME280;66190;50.708;7.906;2023-09-19T11:18:51;96152.53;;;16.33;64.93
77207;BME280;66190;50.708;7.906;2023-09-19T11:26:50;96163.41;;;16.33;64.34
77207;BME280;66190;50.708;7.906;2023-09-19T11:29:27;96142.53;;;16.66;64.66
77207;BME280;66190;50.708;7.906;2023-09-19T11:31:54;96146.28;;;16.82;63.22
77207;BME280;66190;50.708;7.906;2023-09-19T11:39:37;96136.63;;;17.08;62.38
77207;BME280;66190;50.708;7.906;2023-09-19T11:42:41;96139.28;;;16.86;62.17
77207;BME280;66190;50.708;7.906;2023-09-19T11:48:23;96153.41;;;16.50;61.64
77207;BME280;66190;50.708;7.906;2023-09-19T11:50:53;96138.28;;;16.54;63.47
77207;BME280;66190;50.708;7.906;2023-09-19T11:53:18;96140.31;;;16.80;62.22
77207;BME280;66190;50.708;7.906;2023-09-19T11:55:45;96125.78;;;16.91;61.04
77207;BME280;66190;50.708;7.906;2023-09-19T11:58:17;96140.06;;;16.81;61.17
77207;BME280;66190;50.708;7.906;2023-09-19T12:00:44;96140.44;;;16.90;60.83
77207;BME280;66190;50.708;7.906;2023-09-19T12:03:11;96130.41;;;16.90;60.83
77207;BME280;66190;50.708;7.906;2023-09-19T12:05:37;96156.22;;;16.71;59.63
77207;BME280;66190;50.708;7.906;2023-09-19T12:08:04;96142.53;;;16.66;60.33
77207;BME280;66190;50.708;7.906;2023-09-19T12:10:32;96130.50;;;16.79;60.47
77207;BME280;66190;50.708;7.906;2023-09-19T12:12:58;96144.63;;;16.97;60.49
77207;BME280;66190;50.708;7.906;2023-09-19T12:15:25;96151.06;;;16.91;59.78
77207;BME280;66190;50.708;7.906;2023-09-19T12:18:00;96143.97;;;17.07;60.28
77207;BME280;66190;50.708;7.906;2023-09-19T12:20:41;96154.56;;;17.25;59.59
77207;BME280;66190;50.708;7.906;2023-09-19T12:23:13;96154.16;;;17.38;59.60
77207;BME280;66190;50.708;7.906;2023-09-19T12:25:43;96159.22;;;17.30;59.57
77207;BME280;66190;50.708;7.906;2023-09-19T12:28:13;96151.06;;;17.30;59.16
77207;BME280;66190;50.708;7.906;2023-09-19T12:30:39;96152.19;;;17.12;59.16
77207;BME280;66190;50.708;7.906;2023-09-19T12:33:16;96160.59;;;17.11;59.77
77207;BME280;66190;50.708;7.906;2023-09-19T12:35:41;96157.00;;;17.27;59.01
77207;BME280;66190;50.708;7.906;2023-09-19T12:38:10;96160.09;;;17.14;57.85
77207;BME280;66190;50.708;7.906;2023-09-19T12:40:36;96156.84;;;17.17;57.71
77207;BME280;66190;50.708;7.906;2023-09-19T12:43:03;96147.28;;;16.92;58.13
77207;BME280;66190;50.708;7.906;2023-09-19T12:45:31;96139.81;;;17.21;59.23
77207;BME280;66190;50.708;7.906;2023-09-19T12:48:19;96145.44;;;17.36;58.42
77207;BME280;66190;50.708;7.906;2023-09-19T12:53:32;96125.88;;;17.18;58.23
77207;BME280;66190;50.708;7.906;2023-09-19T12:55:59;96144.72;;;17.24;58.64
77207;BME280;66190;50.708;7.906;2023-09-19T12:58:25;96134.31;;;17.16;58.54
77207;BME280;66190;50.708;7.906;2023-09-19T13:00:50;96134.81;;;17.13;58.72
77207;BME280;66190;50.708;7.906;2023-09-19T13:08:30;96143.38;;;17.05;57.31
77207;BME280;66190;50.708;7.906;2023-09-19T13:11:06;96142.47;;;16.99;58.37
77207;BME280;66190;50.708;7.906;2023-09-19T13:13:38;96132.56;;;17.10;58.44
77207;BME280;66190;50.708;7.906;2023-09-19T13:16:04;96143.69;;;17.47;57.85
77207;BME280;66190;50.708;7.906;2023-09-19T13:18:51;96130.25;;;17.83;56.91
77207;BME280;66190;50.708;7.906;2023-09-19T13:21:28;96112.44;;;17.97;55.64
77207;BME280;66190;50.708;7.906;2023-09-19T13:23:55;96108.75;;;18.08;55.36
77207;BME280;66190;50.708;7.906;2023-09-19T13:26:27;96098.72;;;18.41;54.15
77207;BME280;66190;50.708;7.906;2023-09-19T13:28:56;96112.75;;;18.28;54.15
77207;BME280;66190;50.708;7.906;2023-09-19T13:31:22;96115.63;;;18.43;54.41
77207;BME280;66190;50.708;7.906;2023-09-19T13:33:49;96121.25;;;18.36;54.37
77207;BME280;66190;50.708;7.906;2023-09-19T13:36:15;96102.97;;;18.63;53.46
77207;BME280;66190;50.708;7.906;2023-09-19T13:38:43;96108.88;;;18.50;53.84
77207;BME280;66190;50.708;7.906;2023-09-19T13:41:10;96097.91;;;18.45;54.14
77207;BME280;66190;50.708;7.906;2023-09-19T13:43:37;96099.38;;;18.58;54.52
77207;BME280;66190;50.708;7.906;2023-09-19T13:46:02;96105.59;;;18.85;53.69
77207;BME280;66190;50.708;7.906;2023-09-19T13:48:27;96100.31;;;18.73;53.97
77207;BME280;66190;50.708;7.906;2023-09-19T13:50:55;96095.28;;;19.39;53.06
77207;BME280;66190;50.708;7.906;2023-09-19T13:53:21;96092.06;;;19.57;52.64
77207;BME280;66190;50.708;7.906;2023-09-19T13:55:46;96090.38;;;19.41;51.22
77207;BME280;66190;50.708;7.906;2023-09-19T13:58:13;96083.38;;;19.70;49.83